Allen, Washington
Current Conditions -  °F | °C
As of 1:15 PM on Monday 22 Dec 2014 (Local Time) from KBVS Reporting Station
Broken Clouds Broken Clouds  
Wind Chill: 46°   Ceiling: 2900
Heat Index: 48°   Visibility: 10mi
Dew Point: 43°   Wind: 6mph
Humidity: 82%   Direction: 160°SSE
Pressure: 30.39"   Gusts: NA
Location:  48.5689°N, 122.407°W
Report Text: KBVS 222115Z AUTO 16005KT 10SM FEW022 BKN029 BKN035 09/06 A3039 RMK A01 P000
Loading
Personal Weather Stations






























Interactive Weather Map New forecast layout! Learn more

10-Day Weather Forecast

Advertisements
Track Severe Weather on mobile